Terminal Aerodrome Forecast
Issued by NWS

Home | Current Version | Previous Version | Text Only | Print | Product List | Glossary Off
Versions: 1 2 3 4 5 6 7 8 9 10 11 12 13 14 15 16 17 18 19 20 21 22 23 24 25 26 27 28 29

760
FTUS43 KDLH 201729
TAFHIB
TAF
KHIB 201729Z 2018/2118 VRB02KT 6SM BR BKN070
     FM210000 VRB02KT 4SM BR SCT070
     FM210200 00000KT 1SM BR SCT001
     FM210300 00000KT 1/4SM FG OVC001
     FM211300 00000KT 1/2SM FG BKN001
     FM211500 VRB02KT 1SM BR BKN001
     FM211700 VRB03KT 4SM BR BKN008=

USA.gov is the U.S. government's official web portal to all federal, state and local government web resources and services.